Time;durP1;ratioP1;P1;durP2;ratioP2;P2;SDS_P1;SDS_P2;PMS_P1;PMS_P2;Temp;Humidity;BMP_temperature;BMP_pressure;BME280_temperature;BME280_humidity;BME280_pressure;Samples;Min_cycle;Max_cycle;Signal;HPM_P1;HPM_P2
2021/08/01 00:00:01;;;;;;;9.65;6.20;;;;;;;18.67;65.19;99926.33;1755452;80;26580;-75
2021/08/01 00:02:30;;;;;;;7.85;6.12;;;;;;;18.60;65.33;99929.80;1781163;80;26513;-75
2021/08/01 00:04:58;;;;;;;8.05;5.87;;;;;;;18.53;65.42;99935.13;1781480;80;27711;-75
2021/08/01 00:07:25;;;;;;;8.00;6.50;;;;;;;18.48;65.57;99931.02;1726109;80;26183;-75
2021/08/01 00:09:58;;;;;;;8.65;6.33;;;;;;;18.43;65.72;99937.96;1755238;80;25921;-75
2021/08/01 00:12:26;;;;;;;7.83;6.83;;;;;;;18.38;66.07;99937.92;1781385;80;25811;-75
2021/08/01 00:14:54;;;;;;;9.10;6.35;;;;;;;18.31;66.36;99934.58;1776532;80;25904;-75
2021/08/01 00:17:22;;;;;;;8.65;6.60;;;;;;;18.29;66.27;99939.96;1725738;80;28559;-75
2021/08/01 00:19:49;;;;;;;9.95;6.55;;;;;;;18.26;66.33;99939.92;1750379;80;25837;-75
2021/08/01 00:22:16;;;;;;;13.65;6.37;;;;;;;18.21;66.42;99940.41;1781401;80;25766;-75
2021/08/01 00:24:43;;;;;;;9.38;6.78;;;;;;;18.16;66.75;99941.16;1751303;80;26372;-75
2021/08/01 00:27:11;;;;;;;17.25;7.10;;;;;;;18.11;66.90;99945.72;1726521;80;25740;-74
2021/08/01 00:29:38;;;;;;;9.58;6.65;;;;;;;18.06;67.12;99945.63;1750968;80;27563;-75
2021/08/01 00:32:07;;;;;;;8.05;6.20;;;;;;;18.01;67.10;99945.03;1781470;80;25832;-75
2021/08/01 00:34:34;;;;;;;9.13;6.03;;;;;;;17.96;67.29;99944.16;1771657;80;26440;-74
2021/08/01 00:37:01;;;;;;;7.87;5.87;;;;;;;17.88;67.37;99941.88;1697127;80;25850;-75
2021/08/01 00:39:28;;;;;;;8.38;6.12;;;;;;;17.84;67.57;99948.31;1738583;80;25804;-75
2021/08/01 00:41:56;;;;;;;10.88;6.65;;;;;;;17.79;67.62;99950.14;1776423;80;27536;-75
2021/08/01 00:44:24;;;;;;;7.37;5.97;;;;;;;17.78;67.68;99944.42;1774278;80;25906;-75
2021/08/01 00:46:51;;;;;;;11.35;6.97;;;;;;;17.76;67.82;99941.98;1691621;80;25798;-75
2021/08/01 00:49:18;;;;;;;10.40;6.65;;;;;;;17.82;68.13;99945.03;1700700;81;26643;-75
2021/08/01 00:51:45;;;;;;;6.83;6.12;;;;;;;17.85;68.13;99948.61;1767494;80;25837;-75
2021/08/01 00:54:13;;;;;;;6.45;5.80;;;;;;;17.83;68.07;99945.86;1774309;80;28345;-75
2021/08/01 00:56:40;;;;;;;8.85;5.87;;;;;;;17.84;68.00;99947.48;1703796;80;25769;-75
2021/08/01 00:59:07;;;;;;;10.00;5.70;;;;;;;17.84;68.10;99946.96;1742742;80;25769;-75
2021/08/01 01:01:43;;;;;;;10.82;6.87;;;;;;;17.85;68.05;99950.50;1712386;82;26984;-75
2021/08/01 01:04:43;;;;;;;7.62;6.20;;;;;;;17.84;68.11;99945.61;1703550;82;25793;-75
2021/08/01 01:07:57;;;;;;;7.10;5.67;;;;;;;17.85;68.04;99953.20;1728240;81;28337;-75
2021/08/01 01:10:34;;;;;;;9.13;5.90;;;;;;;17.78;68.07;99955.27;1752088;81;26561;-75
2021/08/01 01:13:16;;;;;;;9.75;6.37;;;;;;;17.69;68.17;99955.69;1741879;81;25745;-75
2021/08/01 01:15:47;;;;;;;11.00;6.62;;;;;;;17.64;68.29;99953.45;1710689;82;25780;-75
2021/08/01 01:18:23;;;;;;;8.80;6.72;;;;;;;17.62;68.37;99961.02;1715872;81;26291;-75
2021/08/01 01:21:17;;;;;;;12.70;7.35;;;;;;;17.56;68.45;99961.45;1714554;81;27226;-74
2021/08/01 01:24:10;;;;;;;12.33;8.08;;;;;;;17.51;68.61;99963.27;1759204;81;26007;-74
2021/08/01 01:27:18;;;;;;;11.03;7.55;;;;;;;17.42;68.81;99966.89;1757801;81;25914;-75
2021/08/01 01:29:54;;;;;;;9.05;7.08;;;;;;;17.36;69.10;99965.70;1722322;81;25846;-75
2021/08/01 01:32:46;;;;;;;14.10;7.60;;;;;;;17.35;69.28;99963.52;1697311;81;25933;-75
2021/08/01 01:35:19;;;;;;;11.25;7.58;;;;;;;17.37;69.12;99958.67;1759389;81;27460;-75
2021/08/01 01:37:50;;;;;;;13.53;7.17;;;;;;;17.40;69.22;99960.91;1755401;80;25779;-74
2021/08/01 01:40:23;;;;;;;9.40;6.67;;;;;;;17.44;69.36;99955.28;1701862;81;25485;-74
2021/08/01 01:43:02;;;;;;;15.15;8.28;;;;;;;17.45;69.13;99961.52;1692782;81;26350;-75
2021/08/01 01:45:30;;;;;;;12.30;7.80;;;;;;;17.43;69.12;99964.45;1767226;80;25809;-75
2021/08/01 01:47:59;;;;;;;10.38;7.75;;;;;;;17.43;69.10;99965.81;1737788;82;27587;-74
2021/08/01 01:50:27;;;;;;;11.88;7.08;;;;;;;17.45;69.00;99960.97;1717492;81;25714;-74
2021/08/01 01:52:56;;;;;;;11.28;6.85;;;;;;;17.46;69.03;99957.73;1687721;82;25989;-75
2021/08/01 01:55:24;;;;;;;18.00;8.05;;;;;;;17.43;68.87;99955.50;1752139;81;25816;-75
2021/08/01 01:57:53;;;;;;;10.63;6.42;;;;;;;17.36;68.72;99957.05;1757960;81;25338;-75
2021/08/01 02:00:21;;;;;;;9.28;6.87;;;;;;;17.28;68.82;99956.64;1688995;82;27580;-75
2021/08/01 02:02:49;;;;;;;14.45;7.05;;;;;;;17.19;68.95;99958.94;1714499;80;25808;-74
2021/08/01 02:05:21;;;;;;;11.00;6.70;;;;;;;17.15;69.11;99959.11;1709279;81;25903;-75
2021/08/01 02:08:07;;;;;;;8.80;7.08;;;;;;;17.11;69.06;99957.16;1761834;81;26494;-74
2021/08/01 02:10:59;;;;;;;9.53;6.35;;;;;;;17.09;69.28;99954.68;1737687;81;25798;-75
2021/08/01 02:13:33;;;;;;;13.25;7.12;;;;;;;17.05;69.33;99950.83;1691259;81;27444;-75
2021/08/01 02:16:01;;;;;;;9.98;6.45;;;;;;;17.00;69.27;99948.02;1754902;81;25331;-75
2021/08/01 02:18:36;;;;;;;9.48;6.37;;;;;;;16.94;69.36;99953.89;1734316;81;25828;-75
2021/08/01 02:21:05;;;;;;;11.12;6.58;;;;;;;16.91;69.42;99953.56;1750686;80;26403;-74
2021/08/01 02:23:42;;;;;;;11.03;6.83;;;;;;;16.85;69.47;99951.28;1710738;81;25869;-74
2021/08/01 02:26:13;;;;;;;10.13;6.72;;;;;;;16.81;69.64;99955.54;1755966;81;27506;-74
2021/08/01 02:28:41;;;;;;;10.38;7.22;;;;;;;16.80;69.76;99957.97;1756746;81;25927;-74
2021/08/01 02:31:11;;;;;;;13.85;7.95;;;;;;;16.84;70.01;99963.70;1690712;82;25919;-75
2021/08/01 02:33:39;;;;;;;9.93;7.62;;;;;;;16.83;70.15;99957.47;1695139;81;25675;-75
2021/08/01 02:36:15;;;;;;;11.93;8.25;;;;;;;16.84;70.46;99963.70;1748673;81;25297;-75
2021/08/01 02:38:54;;;;;;;12.63;8.15;;;;;;;16.82;70.64;99963.95;1734713;82;27461;-74
2021/08/01 02:41:39;;;;;;;13.60;8.35;;;;;;;16.81;70.69;99962.83;1689071;80;25775;-75
2021/08/01 02:44:20;;;;;;;13.53;8.38;;;;;;;16.83;70.83;99966.11;1690850;82;25956;-74
2021/08/01 02:46:48;;;;;;;10.72;8.15;;;;;;;16.83;70.84;99962.87;1758792;80;25884;-75
2021/08/01 02:49:19;;;;;;;14.95;8.35;;;;;;;16.86;71.02;99963.75;1729177;82;25690;-75
2021/08/01 02:51:53;;;;;;;12.75;8.95;;;;;;;16.87;71.02;99964.59;1742762;80;28321;-74
2021/08/01 02:54:26;;;;;;;17.87;8.53;;;;;;;16.85;71.08;99967.51;1681817;82;26081;-75
2021/08/01 02:57:04;;;;;;;15.38;8.53;;;;;;;16.85;71.23;99958.59;1720037;80;26167;-75
2021/08/01 02:59:32;;;;;;;16.20;8.93;;;;;;;16.85;71.34;99966.16;1736682;82;25790;-75
2021/08/01 03:02:01;;;;;;;11.83;9.28;;;;;;;16.85;71.35;99961.30;1703264;81;26001;-75
2021/08/01 03:04:31;;;;;;;;;;;;;;;16.87;71.41;99965.38;1699062;81;28337;-75
2021/08/01 03:06:59;;;;;;;14.95;7.58;;;;;;;16.87;71.50;99960.53;1747603;81;25744;-75
2021/08/01 03:09:27;;;;;;;13.72;7.92;;;;;;;16.82;71.42;99969.89;1719748;81;25771;-74
2021/08/01 03:12:09;;;;;;;18.02;9.48;;;;;;;16.80;71.34;99973.38;1717586;81;25871;-74
2021/08/01 03:14:38;;;;;;;13.08;8.18;;;;;;;16.78;71.35;99970.09;1720880;81;25998;-75
2021/08/01 03:17:05;;;;;;;10.90;8.08;;;;;;;16.73;71.33;99978.92;1776817;80;27137;-75
2021/08/01 03:19:39;;;;;;;11.90;9.13;;;;;;;16.69;71.50;99964.77;1684801;81;25459;-74
2021/08/01 03:22:07;;;;;;;11.75;7.85;;;;;;;16.68;71.56;99966.64;1683093;81;26534;-75
2021/08/01 03:24:41;;;;;;;11.48;7.95;;;;;;;16.63;71.60;99967.09;1710158;81;25846;-74
2021/08/01 03:27:16;;;;;;;14.58;8.48;;;;;;;16.61;71.73;99967.87;1756308;81;25830;-76
2021/08/01 03:29:44;;;;;;;12.15;8.88;;;;;;;16.56;71.73;99968.59;1710579;81;27449;-75
2021/08/01 03:32:13;;;;;;;11.83;8.78;;;;;;;16.57;71.93;99969.41;1719984;80;26364;-75
2021/08/01 03:34:40;;;;;;;13.90;8.35;;;;;;;16.54;71.92;99968.53;1710595;80;26586;-75
2021/08/01 03:37:07;;;;;;;10.63;8.55;;;;;;;16.53;71.98;99966.91;1728101;82;25839;-75
2021/08/01 03:39:38;;;;;;;11.65;8.20;;;;;;;16.51;72.13;99965.77;1705796;80;25884;-75
2021/08/01 03:42:06;;;;;;;10.95;8.23;;;;;;;16.48;72.37;99969.47;1725965;81;27559;-74
2021/08/01 03:44:33;;;;;;;11.73;8.08;;;;;;;16.48;72.58;99974.35;1697732;81;25820;-74
2021/08/01 03:47:00;;;;;;;9.95;7.40;;;;;;;16.50;72.66;99975.48;1736064;82;26472;-75
2021/08/01 03:49:27;;;;;;;10.98;8.85;;;;;;;16.52;72.80;99972.84;1701835;81;26458;-75
2021/08/01 03:51:54;;;;;;;9.10;7.70;;;;;;;16.57;73.21;99968.06;1719720;81;25825;-75
2021/08/01 03:54:21;;;;;;;12.47;8.38;;;;;;;16.60;73.26;99975.16;1691171;82;27086;-75
2021/08/01 03:56:48;;;;;;;12.10;8.23;;;;;;;16.66;73.29;99974.70;1755193;81;25883;-75
2021/08/01 03:59:15;;;;;;;13.98;8.88;;;;;;;16.70;73.48;99973.19;1717597;81;25904;-75
2021/08/01 04:01:42;;;;;;;12.65;8.70;;;;;;;16.75;73.41;99977.32;1707446;81;25919;-75
2021/08/01 04:04:09;;;;;;;10.35;8.18;;;;;;;16.79;73.72;99973.89;1697197;81;25989;-74
2021/08/01 04:06:36;;;;;;;12.98;8.08;;;;;;;16.84;73.87;99971.82;1756017;81;27472;-74
2021/08/01 04:09:04;;;;;;;11.85;8.18;;;;;;;16.87;73.82;99968.64;1689664;82;25840;-74
2021/08/01 04:11:32;;;;;;;10.03;8.10;;;;;;;16.88;73.57;99972.45;1703808;80;25858;-75
2021/08/01 04:14:00;;;;;;;12.25;7.92;;;;;;;16.89;73.60;99966.52;1699451;81;25848;-75
2021/08/01 04:16:27;;;;;;;11.38;8.35;;;;;;;16.92;73.63;99970.89;1772184;80;25681;-75
2021/08/01 04:18:54;;;;;;;12.45;8.35;;;;;;;17.00;73.92;99972.38;1688925;82;27452;-75
2021/08/01 04:21:21;;;;;;;13.43;7.50;;;;;;;17.08;74.51;99982.82;1724009;81;26536;-74
2021/08/01 04:23:48;;;;;;;11.03;7.97;;;;;;;17.13;74.41;99979.39;1718870;81;25834;-74
2021/08/01 04:26:15;;;;;;;9.60;7.05;;;;;;;17.14;74.16;99976.95;1766556;80;26483;-75
2021/08/01 04:28:42;;;;;;;9.05;7.20;;;;;;;17.10;73.91;99982.05;1708718;81;25741;-75
2021/08/01 04:31:09;;;;;;;10.40;6.85;;;;;;;17.11;74.12;99985.58;1706957;81;28692;-75
2021/08/01 04:33:36;;;;;;;11.35;6.83;;;;;;;17.11;74.06;99976.91;1727323;81;25863;-75
2021/08/01 04:36:04;;;;;;;10.65;7.35;;;;;;;17.13;74.49;99978.83;1710118;82;25768;-75
2021/08/01 04:38:31;;;;;;;6.83;6.12;;;;;;;17.14;74.58;99984.55;1753018;81;25765;-75
2021/08/01 04:40:58;;;;;;;9.68;7.22;;;;;;;17.16;74.70;99987.00;1695520;81;25878;-75
2021/08/01 04:43:25;;;;;;;8.08;6.90;;;;;;;17.16;74.50;99978.88;1678432;82;27424;-74
2021/08/01 04:45:52;;;;;;;13.25;6.87;;;;;;;17.17;74.62;99976.48;1722629;80;26592;-75
2021/08/01 04:48:19;;;;;;;11.08;7.10;;;;;;;17.23;75.10;99983.61;1745151;81;26445;-75
2021/08/01 04:50:46;;;;;;;11.95;7.55;;;;;;;17.28;75.06;99980.45;1693405;81;26342;-75
2021/08/01 04:53:13;;;;;;;14.20;7.37;;;;;;;17.29;75.04;99982.10;1682913;82;25853;-75
2021/08/01 04:55:40;;;;;;;12.15;7.37;;;;;;;17.32;75.28;99980.80;1720948;81;27513;-75
2021/08/01 04:58:08;;;;;;;10.32;7.42;;;;;;;17.36;75.31;99981.95;1768298;80;25622;-75
2021/08/01 05:00:35;;;;;;;10.05;7.05;;;;;;;17.43;75.90;99979.88;1700748;80;25857;-75
2021/08/01 05:03:03;;;;;;;9.93;7.83;;;;;;;17.50;76.25;99985.46;1714873;80;26505;-75
2021/08/01 05:05:41;;;;;;;13.05;7.95;;;;;;;17.59;76.48;99982.63;1726945;81;25833;-75
2021/08/01 05:08:06;;;;;;;8.98;6.92;;;;;;;17.70;76.70;99989.85;1763428;80;27460;-75
2021/08/01 05:10:33;;;;;;;9.50;6.70;;;;;;;17.79;76.87;99991.61;1705480;81;26453;-75
2021/08/01 05:13:04;;;;;;;9.53;6.80;;;;;;;17.89;76.93;99999.05;1728339;80;26357;-74
2021/08/01 05:15:31;;;;;;;10.65;6.05;;;;;;;18.01;76.80;100010.59;1729943;81;25772;-74
2021/08/01 05:17:58;;;;;;;8.95;7.20;;;;;;;18.15;76.78;100005.95;1734963;82;26002;-75
2021/08/01 05:20:25;;;;;;;11.57;7.67;;;;;;;18.29;76.35;100005.86;1673229;81;27493;-75
2021/08/01 05:22:52;;;;;;;10.05;6.65;;;;;;;18.45;75.83;100008.27;1722432;81;25888;-74
2021/08/01 05:25:19;;;;;;;12.95;7.60;;;;;;;18.59;75.35;100007.34;1723965;81;25847;-75
2021/08/01 05:27:46;;;;;;;11.30;7.45;;;;;;;18.74;74.93;100002.92;1737580;81;26579;-74
2021/08/01 05:30:13;;;;;;;8.28;6.17;;;;;;;18.92;74.77;100015.33;1669831;82;25935;-74
2021/08/01 05:32:40;;;;;;;8.83;6.10;;;;;;;19.08;75.03;100013.87;1684229;82;28197;-75
2021/08/01 05:35:08;;;;;;;9.03;5.85;;;;;;;19.19;73.25;100013.44;1751244;81;25974;-74
2021/08/01 05:37:35;;;;;;;8.98;5.87;;;;;;;19.29;72.42;100014.08;1716402;82;26028;-74
2021/08/01 05:40:03;;;;;;;8.10;5.03;;;;;;;19.41;72.27;100018.83;1686758;81;27038;-75
2021/08/01 05:42:33;;;;;;;7.47;5.00;;;;;;;19.52;71.32;100009.16;1722148;81;25773;-75
2021/08/01 05:45:00;;;;;;;6.08;5.28;;;;;;;19.67;70.99;99998.42;1732899;82;27500;-75
2021/08/01 05:47:27;;;;;;;6.20;4.83;;;;;;;19.80;71.02;99999.87;1753806;81;25827;-75
2021/08/01 05:49:54;;;;;;;7.55;4.95;;;;;;;19.91;70.42;100000.19;1688475;81;25789;-75
2021/08/01 05:52:21;;;;;;;5.35;4.72;;;;;;;20.04;70.70;100007.89;1704326;81;26506;-75
2021/08/01 05:54:48;;;;;;;9.60;4.37;;;;;;;20.17;70.32;100003.34;1708462;81;25981;-74
2021/08/01 05:57:15;;;;;;;6.40;4.12;;;;;;;20.31;69.21;99999.66;1715246;82;28281;-75
2021/08/01 05:59:42;;;;;;;8.03;5.47;;;;;;;20.46;68.80;99997.83;1696418;81;25779;-74
2021/08/01 06:02:12;;;;;;;9.23;4.90;;;;;;;20.55;68.05;99994.05;1706135;81;26041;-75
2021/08/01 06:04:39;;;;;;;7.83;4.70;;;;;;;20.65;67.59;99996.80;1725383;81;26569;-75
2021/08/01 06:07:09;;;;;;;12.20;8.33;;;;;;;20.72;67.72;99996.02;1737872;82;25820;-75
2021/08/01 06:09:39;;;;;;;14.80;11.07;;;;;;;20.81;67.38;99986.80;1697168;81;27334;-75
2021/08/01 06:12:10;;;;;;;9.23;5.43;;;;;;;20.93;67.41;100000.43;1721578;80;26107;-75
2021/08/01 06:14:37;;;;;;;8.85;5.80;;;;;;;21.05;67.55;99992.03;1750354;81;25389;-75
2021/08/01 06:17:04;;;;;;;13.28;5.78;;;;;;;21.14;65.08;99987.69;1754644;81;26488;-75
2021/08/01 06:19:31;;;;;;;7.28;3.95;;;;;;;21.23;64.61;99994.25;1685516;81;25779;-75
2021/08/01 06:21:58;;;;;;;5.10;4.25;;;;;;;21.32;64.14;99985.25;1725117;81;28395;-75
2021/08/01 06:24:26;;;;;;;6.20;3.50;;;;;;;21.45;64.35;99986.61;1701334;82;25959;-75
2021/08/01 06:26:53;;;;;;;8.25;4.47;;;;;;;21.60;63.15;99993.42;1766967;80;25809;-75
2021/08/01 06:29:20;;;;;;;5.50;3.10;;;;;;;21.67;62.73;99990.42;1696498;80;26537;-75
2021/08/01 06:31:47;;;;;;;4.08;3.65;;;;;;;21.75;63.18;99994.78;1690169;80;25735;-75
2021/08/01 06:34:14;;;;;;;5.25;3.98;;;;;;;21.76;62.09;99987.42;1736265;80;28318;-75
2021/08/01 06:36:41;;;;;;;12.90;3.60;;;;;;;21.79;62.48;99996.43;1747925;81;25814;-75
2021/08/01 06:39:08;;;;;;;4.78;3.10;;;;;;;21.73;61.49;99999.69;1696333;81;25848;-75
2021/08/01 06:41:35;;;;;;;7.40;3.30;;;;;;;21.69;62.00;100004.59;1723007;81;26437;-75
2021/08/01 06:44:03;;;;;;;8.00;3.62;;;;;;;21.67;62.05;100001.33;1714251;82;25959;-75
2021/08/01 06:46:30;;;;;;;7.62;2.85;;;;;;;21.66;62.33;100000.53;1748307;80;28342;-75
2021/08/01 06:48:57;;;;;;;7.05;3.98;;;;;;;21.74;61.97;99999.98;1752948;79;25750;-75
2021/08/01 06:51:24;;;;;;;9.93;5.92;;;;;;;21.85;60.59;100001.64;1710450;81;25908;-75
2021/08/01 06:53:51;;;;;;;10.32;3.70;;;;;;;21.92;60.46;100003.52;1724506;81;26282;-75
2021/08/01 06:56:20;;;;;;;5.20;3.45;;;;;;;22.04;61.59;100001.87;1750258;80;26562;-75
2021/08/01 06:58:47;;;;;;;5.17;3.50;;;;;;;22.17;60.22;100003.48;1692329;81;27476;-75
2021/08/01 07:01:14;;;;;;;7.80;5.17;;;;;;;22.26;59.90;99994.98;1677111;82;26701;-75
2021/08/01 07:03:41;;;;;;;6.92;3.25;;;;;;;22.36;59.53;99993.31;1747534;81;25786;-75
2021/08/01 07:06:10;;;;;;;8.10;3.08;;;;;;;22.43;59.79;99996.03;1752351;79;25919;-75
2021/08/01 07:08:37;;;;;;;4.55;2.95;;;;;;;22.47;60.81;99994.91;1704571;80;25780;-75
2021/08/01 07:11:04;;;;;;;4.40;3.35;;;;;;;22.54;60.66;100000.91;1703332;81;28171;-75
2021/08/01 07:13:32;;;;;;;4.25;3.20;;;;;;;22.55;59.20;99999.25;1767406;80;26169;-75
2021/08/01 07:16:04;;;;;;;6.08;3.08;;;;;;;22.58;58.39;99995.94;1731503;80;25291;-75
2021/08/01 07:18:32;;;;;;;5.42;3.00;;;;;;;22.61;58.24;99990.50;1712254;80;26358;-75
2021/08/01 07:20:59;;;;;;;5.47;3.00;;;;;;;22.69;58.07;99996.20;1728568;80;25780;-75
2021/08/01 07:23:27;;;;;;;8.48;2.77;;;;;;;22.79;58.06;99995.34;1773395;79;27509;-75
2021/08/01 07:25:54;;;;;;;6.42;3.15;;;;;;;22.80;58.05;99998.33;1769756;80;26454;-75
2021/08/01 07:28:22;;;;;;;7.08;3.30;;;;;;;22.83;57.52;100000.51;1678830;81;25349;-75
2021/08/01 07:30:51;;;;;;;6.05;2.87;;;;;;;22.86;57.06;100000.75;1703383;81;26571;-75
2021/08/01 07:33:22;;;;;;;3.05;2.58;;;;;;;22.95;57.79;99997.70;1728432;81;25773;-75
2021/08/01 07:35:49;;;;;;;9.30;3.55;;;;;;;23.03;57.16;100002.31;1749213;81;27447;-75
2021/08/01 07:38:16;;;;;;;3.60;3.10;;;;;;;23.08;57.16;100004.45;1698812;81;26071;-75
2021/08/01 07:40:43;;;;;;;5.30;2.65;;;;;;;23.17;58.01;100003.30;1744128;80;25404;-75
2021/08/01 07:43:10;;;;;;;7.35;3.35;;;;;;;23.25;56.92;100004.06;1740081;80;25919;-75
2021/08/01 07:45:37;;;;;;;5.10;3.02;;;;;;;23.33;56.27;99999.41;1759184;80;25817;-75
2021/08/01 07:48:05;;;;;;;4.97;2.22;;;;;;;23.36;56.14;99985.16;1720457;82;46602;-75
2021/08/01 07:50:32;;;;;;;4.00;2.67;;;;;;;23.40;56.03;99976.11;1700380;79;25394;-75
2021/08/01 07:52:59;;;;;;;3.52;2.40;;;;;;;23.43;56.08;99987.02;1738354;79;25812;-75
2021/08/01 07:55:26;;;;;;;3.87;2.60;;;;;;;23.39;56.24;99981.32;1766854;79;25859;-75
2021/08/01 07:57:56;;;;;;;4.20;2.25;;;;;;;23.36;54.88;99980.52;1747974;79;25766;-75
2021/08/01 08:00:23;;;;;;;5.30;2.77;;;;;;;23.37;55.42;99988.99;1750792;81;27547;-75
2021/08/01 08:02:50;;;;;;;7.03;4.03;;;;;;;23.45;55.73;99991.11;1718821;79;26452;-75
2021/08/01 08:05:17;;;;;;;7.17;4.10;;;;;;;23.56;54.95;99991.30;1741161;80;25924;-75
2021/08/01 08:07:44;;;;;;;5.97;2.05;;;;;;;23.68;54.95;99996.38;1773200;80;26551;-75
2021/08/01 08:10:11;;;;;;;4.67;2.12;;;;;;;23.77;55.52;99997.39;1773098;79;25796;-75
2021/08/01 08:12:39;;;;;;;6.65;3.30;;;;;;;23.87;55.26;100000.02;1677711;81;27453;-76
2021/08/01 08:15:08;;;;;;;6.00;3.65;;;;;;;23.93;53.69;99993.39;1760068;79;25581;-75
2021/08/01 08:17:35;;;;;;;7.50;2.20;;;;;;;23.99;54.04;99994.17;1765280;79;25776;-75
2021/08/01 08:20:06;;;;;;;4.90;2.70;;;;;;;24.03;52.57;99990.57;1780525;79;25962;-75
2021/08/01 08:22:33;;;;;;;3.60;2.83;;;;;;;23.99;52.56;99990.89;1764808;78;25922;-75
2021/08/01 08:25:01;;;;;;;7.95;2.80;;;;;;;23.95;53.07;99989.81;1680303;81;27566;-75
2021/08/01 08:27:28;;;;;;;4.58;2.15;;;;;;;23.94;53.52;99990.11;1743678;80;25811;-75
2021/08/01 08:29:55;;;;;;;5.17;1.90;;;;;;;23.87;53.38;99992.36;1754568;80;25994;-75
2021/08/01 08:32:22;;;;;;;3.17;2.50;;;;;;;23.85;53.30;99983.63;1668717;81;25845;-75
2021/08/01 08:34:49;;;;;;;3.98;2.10;;;;;;;23.82;54.17;99979.57;1704565;81;25813;-75
2021/08/01 08:37:16;;;;;;;5.22;2.27;;;;;;;23.82;54.97;99981.48;1773701;80;28846;-75
2021/08/01 08:39:43;;;;;;;4.00;1.82;;;;;;;23.82;55.02;99973.28;1771965;79;26031;-76
2021/08/01 08:42:10;;;;;;;3.70;1.77;;;;;;;23.75;54.68;99973.62;1721852;80;25311;-75
2021/08/01 08:44:37;;;;;;;5.37;1.87;;;;;;;23.72;53.71;99971.45;1679117;81;25870;-75
2021/08/01 08:47:05;;;;;;;3.08;1.60;;;;;;;23.74;53.38;99975.53;1763999;80;25934;-75
2021/08/01 08:49:36;;;;;;;3.98;2.05;;;;;;;23.78;53.59;99963.45;1755347;81;28215;-75
2021/08/01 08:52:08;;;;;;;5.60;1.85;;;;;;;23.82;53.80;99970.00;1752888;81;26143;-75
2021/08/01 08:54:43;;;;;;;2.50;1.60;;;;;;;23.82;52.90;99968.63;1751878;80;25720;-75
2021/08/01 08:57:18;;;;;;;4.17;2.05;;;;;;;23.86;53.27;99972.97;1754965;81;25821;-76
2021/08/01 08:59:45;;;;;;;3.20;1.85;;;;;;;23.90;53.94;99976.20;1729090;81;26061;-75
2021/08/01 09:02:16;;;;;;;4.20;1.80;;;;;;;23.92;53.53;99973.17;1726958;80;28318;-75
2021/08/01 09:04:45;;;;;;;6.03;1.72;;;;;;;23.94;53.33;99978.63;1657397;80;25806;-75
2021/08/01 09:07:12;;;;;;;3.12;1.65;;;;;;;23.96;53.48;99968.75;1772365;80;25587;-75
2021/08/01 09:09:39;;;;;;;5.08;2.02;;;;;;;23.93;53.69;99972.08;1740864;80;25907;-76
2021/08/01 09:12:07;;;;;;;2.00;1.55;;;;;;;23.89;54.14;99960.09;1688977;80;25787;-75
2021/08/01 09:14:34;;;;;;;4.05;1.77;;;;;;;23.86;53.84;99946.98;1722427;80;27574;-76
2021/08/01 09:17:01;;;;;;;2.25;1.62;;;;;;;23.86;53.94;99942.33;1773344;80;26203;-75
2021/08/01 09:19:35;;;;;;;5.62;1.77;;;;;;;23.86;54.20;99940.14;1770006;80;25979;-75
2021/08/01 09:22:18;;;;;;;2.70;1.82;;;;;;;23.87;53.59;99943.12;1689339;82;26557;-75
2021/08/01 09:24:49;;;;;;;2.98;1.70;;;;;;;23.92;53.42;99942.53;1699874;81;25805;-76
2021/08/01 09:27:34;;;;;;;2.52;1.90;;;;;;;23.96;53.08;99942.75;1756412;81;27456;-75
2021/08/01 09:30:03;;;;;;;2.80;2.20;;;;;;;23.98;53.16;99937.27;1733831;82;25722;-75
2021/08/01 09:32:34;;;;;;;5.75;2.00;;;;;;;24.03;52.96;99941.32;1676717;81;25922;-75
2021/08/01 09:35:01;;;;;;;2.30;1.80;;;;;;;24.09;52.84;99940.19;1716285;81;25781;-75
2021/08/01 09:37:32;;;;;;;3.15;2.12;;;;;;;24.17;52.15;99933.23;1718779;81;26530;-75
2021/08/01 09:40:11;;;;;;;;;;;;;;;24.21;52.53;99931.00;1733539;80;28113;-75
2021/08/01 09:42:45;;;;;;;5.75;2.17;;;;;;;24.26;53.13;99921.37;1711347;81;26541;-75
2021/08/01 09:45:19;;;;;;;1.80;1.60;;;;;;;24.37;53.17;99920.69;1695564;81;26580;-75
2021/08/01 09:47:49;;;;;;;2.08;1.25;;;;;;;24.46;52.89;99922.45;1728243;80;25890;-75
2021/08/01 09:50:19;;;;;;;2.90;1.45;;;;;;;24.54;51.53;99911.42;1693160;81;25930;-75
2021/08/01 09:52:46;;;;;;;4.78;1.37;;;;;;;24.57;51.12;99909.47;1718728;81;27522;-75
2021/08/01 09:55:20;;;;;;;3.20;1.90;;;;;;;24.59;50.64;99907.25;1695337;81;26141;-76
2021/08/01 09:57:57;;;;;;;4.85;1.50;;;;;;;24.58;50.41;99906.98;1736308;81;26514;-75
2021/08/01 10:00:24;;;;;;;3.98;1.55;;;;;;;24.59;50.25;99907.25;1722233;80;25845;-75
2021/08/01 10:02:52;;;;;;;6.05;1.67;;;;;;;24.60;49.25;99902.56;1699122;81;25772;-75
2021/08/01 10:05:22;;;;;;;4.00;1.60;;;;;;;24.56;49.26;99901.53;1689468;81;28683;-76
2021/08/01 10:07:52;;;;;;;4.40;1.62;;;;;;;24.53;50.95;99896.66;1759538;81;25726;-75
2021/08/01 10:10:26;;;;;;;3.72;1.72;;;;;;;24.53;51.82;99893.92;1689387;82;26360;-75
2021/08/01 10:12:58;;;;;;;2.37;1.57;;;;;;;24.53;51.16;99893.92;1693957;80;25925;-75
2021/08/01 10:15:26;;;;;;;4.03;1.65;;;;;;;24.50;50.77;99895.32;1719039;81;26015;-76
2021/08/01 10:17:54;;;;;;;3.85;1.70;;;;;;;24.49;51.61;99896.42;1754087;81;27457;-75
2021/08/01 10:20:21;;;;;;;5.00;1.70;;;;;;;24.47;51.92;99900.00;1677142;81;26019;-75
2021/08/01 10:22:51;;;;;;;6.45;1.45;;;;;;;24.44;51.47;99899.24;1706945;80;25774;-75
2021/08/01 10:25:22;;;;;;;5.15;1.42;;;;;;;24.41;51.17;99900.64;1699710;81;25929;-76
2021/08/01 10:27:54;;;;;;;2.60;1.65;;;;;;;24.39;52.50;99893.83;1750572;79;25570;-75
2021/08/01 10:30:21;;;;;;;3.45;1.52;;;;;;;24.34;52.54;99886.49;1696666;79;27529;-75
2021/08/01 10:32:53;;;;;;;2.60;1.60;;;;;;;24.31;52.16;99888.47;1715910;81;26522;-75
2021/08/01 10:35:24;;;;;;;2.67;1.60;;;;;;;24.27;52.89;99884.66;1754728;80;25981;-76
2021/08/01 10:38:03;;;;;;;4.17;1.65;;;;;;;24.27;53.39;99883.29;1745267;81;25871;-75
2021/08/01 10:40:35;;;;;;;1.92;1.32;;;;;;;24.26;53.56;99890.44;1713256;80;25482;-75
2021/08/01 10:43:10;;;;;;;2.37;1.75;;;;;;;24.24;53.80;99889.38;1706039;81;27518;-76
2021/08/01 10:45:40;;;;;;;6.00;2.10;;;;;;;24.25;53.81;99882.77;1728626;80;26079;-75
2021/08/01 10:48:08;;;;;;;5.05;1.70;;;;;;;24.29;53.83;99874.81;1728934;81;25911;-76
2021/08/01 10:50:36;;;;;;;2.15;1.52;;;;;;;24.26;53.95;99873.47;1682742;82;25889;-76
2021/08/01 10:53:27;;;;;;;4.90;1.87;;;;;;;24.28;52.60;99877.27;1714791;82;25918;-75
2021/08/01 10:56:15;;;;;;;5.45;2.37;;;;;;;24.31;52.86;99868.48;1697594;81;27862;-75
2021/08/01 10:58:42;;;;;;;4.17;2.17;;;;;;;24.33;53.36;99865.72;1761496;81;25978;-75
2021/08/01 11:01:10;;;;;;;3.00;1.90;;;;;;;24.34;53.68;99862.41;1663440;82;25943;-76
2021/08/01 11:03:42;;;;;;;3.62;1.85;;;;;;;24.34;54.16;99860.48;1737696;80;25940;-75
2021/08/01 11:06:37;;;;;;;5.22;1.82;;;;;;;24.34;54.04;99859.12;1695426;82;26755;-76
2021/08/01 11:09:12;;;;;;;3.67;1.57;;;;;;;24.36;54.71;99861.00;1725217;82;27449;-75
2021/08/01 11:11:44;;;;;;;1.62;1.50;;;;;;;24.30;54.36;99864.92;1720378;81;26216;-76
2021/08/01 11:14:30;;;;;;;3.52;1.55;;;;;;;24.22;53.78;99866.14;1739292;80;25824;-76
2021/08/01 11:16:57;;;;;;;7.40;2.45;;;;;;;24.15;54.68;99873.88;1708680;82;25838;-75
2021/08/01 11:19:32;;;;;;;4.45;1.85;;;;;;;24.11;54.73;99880.50;1763051;81;25791;-76
2021/08/01 11:21:59;;;;;;;2.55;1.50;;;;;;;24.13;54.48;99885.67;1718041;81;28553;-76
2021/08/01 11:24:26;;;;;;;2.75;1.72;;;;;;;24.13;54.62;99896.08;1713154;82;25912;-76
2021/08/01 11:27:09;;;;;;;3.30;1.90;;;;;;;24.13;55.07;99901.55;1697748;81;25780;-76
2021/08/01 11:29:56;;;;;;;5.20;1.80;;;;;;;24.10;55.10;99902.12;1752745;81;26438;-75
2021/08/01 11:32:23;;;;;;;6.37;2.00;;;;;;;24.06;56.23;99907.13;1755535;80;26088;-75
2021/08/01 11:35:14;;;;;;;3.30;1.90;;;;;;;23.99;57.52;99900.61;1723422;81;27451;-76
2021/08/01 11:37:41;;;;;;;3.70;2.20;;;;;;;23.89;57.75;99900.70;1691519;81;25829;-76
2021/08/01 11:40:09;;;;;;;3.72;2.40;;;;;;;23.85;58.97;99909.23;1720595;81;26661;-77
2021/08/01 11:42:36;;;;;;;5.72;2.40;;;;;;;23.82;59.43;99909.83;1776941;80;26978;-77